sensor_id;sensor_type;location;lat;lon;timestamp;temperature;humidity
11091;DHT22;5599;52.210;21.046;2023-04-26T00:01:20;8.90;99.90
11091;DHT22;5599;52.210;21.046;2023-04-26T00:03:54;8.90;99.90
11091;DHT22;5599;52.210;21.046;2023-04-26T00:06:25;8.90;99.90
11091;DHT22;5599;52.210;21.046;2023-04-26T00:08:55;8.80;99.90
11091;DHT22;5599;52.210;21.046;2023-04-26T00:11:24;8.80;99.90
11091;DHT22;5599;52.210;21.046;2023-04-26T00:13:53;8.80;99.90
11091;DHT22;5599;52.210;21.046;2023-04-26T00:16:23;8.70;99.90
11091;DHT22;5599;52.210;21.046;2023-04-26T00:18:52;8.70;99.90
11091;DHT22;5599;52.210;21.046;2023-04-26T00:21:24;8.70;99.90
11091;DHT22;5599;52.210;21.046;2023-04-26T00:23:53;8.80;99.90
11091;DHT22;5599;52.210;21.046;2023-04-26T00:26:23;8.80;99.90
11091;DHT22;5599;52.210;21.046;2023-04-26T00:28:52;8.70;99.90
11091;DHT22;5599;52.210;21.046;2023-04-26T00:31:21;8.60;99.90
11091;DHT22;5599;52.210;21.046;2023-04-26T00:33:51;8.50;99.90
11091;DHT22;5599;52.210;21.046;2023-04-26T00:36:20;8.30;72.00
11091;DHT22;5599;52.210;21.046;2023-04-26T00:38:51;8.30;99.90
11091;DHT22;5599;52.210;21.046;2023-04-26T00:41:21;8.20;99.90
11091;DHT22;5599;52.210;21.046;2023-04-26T00:43:51;8.10;99.90
11091;DHT22;5599;52.210;21.046;2023-04-26T00:46:20;8.00;99.90
11091;DHT22;5599;52.210;21.046;2023-04-26T00:48:50;7.90;99.90
11091;DHT22;5599;52.210;21.046;2023-04-26T00:51:20;7.90;99.90
11091;DHT22;5599;52.210;21.046;2023-04-26T00:53:51;7.90;99.90
11091;DHT22;5599;52.210;21.046;2023-04-26T00:56:22;7.90;99.90
11091;DHT22;5599;52.210;21.046;2023-04-26T00:58:53;7.80;99.90
11091;DHT22;5599;52.210;21.046;2023-04-26T01:01:22;7.80;99.90
11091;DHT22;5599;52.210;21.046;2023-04-26T01:03:51;7.70;99.90
11091;DHT22;5599;52.210;21.046;2023-04-26T01:06:21;7.80;99.90
11091;DHT22;5599;52.210;21.046;2023-04-26T01:08:52;7.80;99.90
11091;DHT22;5599;52.210;21.046;2023-04-26T01:11:25;7.80;99.90
11091;DHT22;5599;52.210;21.046;2023-04-26T01:13:55;7.70;99.90
11091;DHT22;5599;52.210;21.046;2023-04-26T01:16:27;7.60;99.90
11091;DHT22;5599;52.210;21.046;2023-04-26T01:18:56;7.60;99.90
11091;DHT22;5599;52.210;21.046;2023-04-26T01:21:26;7.60;99.90
11091;DHT22;5599;52.210;21.046;2023-04-26T01:23:57;7.70;99.90
11091;DHT22;5599;52.210;21.046;2023-04-26T01:26:26;7.90;99.90
11091;DHT22;5599;52.210;21.046;2023-04-26T01:28:55;7.80;99.90
11091;DHT22;5599;52.210;21.046;2023-04-26T01:31:25;7.70;99.90
11091;DHT22;5599;52.210;21.046;2023-04-26T01:33:54;7.80;99.90
11091;DHT22;5599;52.210;21.046;2023-04-26T01:36:24;7.90;99.90
11091;DHT22;5599;52.210;21.046;2023-04-26T01:38:53;8.00;99.90
11091;DHT22;5599;52.210;21.046;2023-04-26T01:41:24;8.00;99.90
11091;DHT22;5599;52.210;21.046;2023-04-26T01:43:53;8.10;99.90
11091;DHT22;5599;52.210;21.046;2023-04-26T01:46:26;8.00;99.90
11091;DHT22;5599;52.210;21.046;2023-04-26T01:48:55;8.00;94.50
11091;DHT22;5599;52.210;21.046;2023-04-26T01:51:25;8.00;53.40
11091;DHT22;5599;52.210;21.046;2023-04-26T01:53:54;7.90;74.70
11091;DHT22;5599;52.210;21.046;2023-04-26T01:56:26;8.00;99.90
11091;DHT22;5599;52.210;21.046;2023-04-26T01:58:55;8.00;93.00
11091;DHT22;5599;52.210;21.046;2023-04-26T02:01:25;7.90;99.90
11091;DHT22;5599;52.210;21.046;2023-04-26T02:03:55;7.90;99.90
11091;DHT22;5599;52.210;21.046;2023-04-26T02:06:24;7.80;99.90
11091;DHT22;5599;52.210;21.046;2023-04-26T02:08:55;7.80;99.90
11091;DHT22;5599;52.210;21.046;2023-04-26T02:11:26;7.70;99.90
11091;DHT22;5599;52.210;21.046;2023-04-26T02:13:55;7.70;99.90
11091;DHT22;5599;52.210;21.046;2023-04-26T02:16:24;7.80;99.90
11091;DHT22;5599;52.210;21.046;2023-04-26T02:18:54;7.80;99.90
11091;DHT22;5599;52.210;21.046;2023-04-26T02:21:23;7.80;99.90
11091;DHT22;5599;52.210;21.046;2023-04-26T02:23:53;7.90;99.90
11091;DHT22;5599;52.210;21.046;2023-04-26T02:26:25;7.80;99.90
11091;DHT22;5599;52.210;21.046;2023-04-26T02:28:54;7.90;99.90
11091;DHT22;5599;52.210;21.046;2023-04-26T02:31:23;7.90;99.90
11091;DHT22;5599;52.210;21.046;2023-04-26T02:33:54;7.90;99.90
11091;DHT22;5599;52.210;21.046;2023-04-26T02:36:24;7.90;99.90
11091;DHT22;5599;52.210;21.046;2023-04-26T02:38:55;8.00;99.90
11091;DHT22;5599;52.210;21.046;2023-04-26T02:41:25;8.10;99.90
11091;DHT22;5599;52.210;21.046;2023-04-26T02:43:55;8.10;99.90
11091;DHT22;5599;52.210;21.046;2023-04-26T02:46:25;8.10;99.90
11091;DHT22;5599;52.210;21.046;2023-04-26T02:48:54;8.10;99.90
11091;DHT22;5599;52.210;21.046;2023-04-26T02:51:23;8.10;99.90
11091;DHT22;5599;52.210;21.046;2023-04-26T02:53:53;8.10;99.90
11091;DHT22;5599;52.210;21.046;2023-04-26T02:56:25;8.10;99.90
11091;DHT22;5599;52.210;21.046;2023-04-26T02:58:55;8.20;99.90
11091;DHT22;5599;52.210;21.046;2023-04-26T03:01:24;8.30;99.90
11091;DHT22;5599;52.210;21.046;2023-04-26T03:03:53;8.30;99.90
11091;DHT22;5599;52.210;21.046;2023-04-26T03:06:26;8.20;99.90
11091;DHT22;5599;52.210;21.046;2023-04-26T03:08:56;8.20;99.90
11091;DHT22;5599;52.210;21.046;2023-04-26T03:11:27;8.20;99.90
11091;DHT22;5599;52.210;21.046;2023-04-26T03:13:56;8.20;99.90
11091;DHT22;5599;52.210;21.046;2023-04-26T03:16:27;8.20;99.90
11091;DHT22;5599;52.210;21.046;2023-04-26T03:18:56;8.20;99.90
11091;DHT22;5599;52.210;21.046;2023-04-26T03:21:25;8.20;92.00
11091;DHT22;5599;52.210;21.046;2023-04-26T03:23:55;8.20;79.60
11091;DHT22;5599;52.210;21.046;2023-04-26T03:26:24;8.20;41.50
11091;DHT22;5599;52.210;21.046;2023-04-26T03:28:55;8.20;15.10
11091;DHT22;5599;52.210;21.046;2023-04-26T03:31:24;8.00;1.00
11091;DHT22;5599;52.210;21.046;2023-04-26T03:33:54;8.00;22.10
11091;DHT22;5599;52.210;21.046;2023-04-26T03:36:24;7.90;1.00
11091;DHT22;5599;52.210;21.046;2023-04-26T03:38:56;8.00;1.00
11091;DHT22;5599;52.210;21.046;2023-04-26T03:41:26;8.00;1.00
11091;DHT22;5599;52.210;21.046;2023-04-26T03:44:01;7.90;1.00
11091;DHT22;5599;52.210;21.046;2023-04-26T03:46:33;7.80;1.00
11091;DHT22;5599;52.210;21.046;2023-04-26T03:49:03;7.80;1.00
11091;DHT22;5599;52.210;21.046;2023-04-26T03:51:33;7.70;1.00
11091;DHT22;5599;52.210;21.046;2023-04-26T03:54:02;7.70;1.00
11091;DHT22;5599;52.210;21.046;2023-04-26T03:56:32;7.80;1.00
11091;DHT22;5599;52.210;21.046;2023-04-26T03:59:03;7.70;1.00
11091;DHT22;5599;52.210;21.046;2023-04-26T04:01:32;7.60;1.00
11091;DHT22;5599;52.210;21.046;2023-04-26T04:04:01;7.60;1.00
11091;DHT22;5599;52.210;21.046;2023-04-26T04:06:31;7.60;1.00
11091;DHT22;5599;52.210;21.046;2023-04-26T04:09:00;7.60;1.00
11091;DHT22;5599;52.210;21.046;2023-04-26T04:11:31;7.70;1.00
11091;DHT22;5599;52.210;21.046;2023-04-26T04:14:03;7.70;1.00
11091;DHT22;5599;52.210;21.046;2023-04-26T04:16:32;7.80;1.00
11091;DHT22;5599;52.210;21.046;2023-04-26T04:19:02;7.90;1.00
11091;DHT22;5599;52.210;21.046;2023-04-26T04:21:32;8.20;1.00
11091;DHT22;5599;52.210;21.046;2023-04-26T04:24:03;8.60;9.40
11091;DHT22;5599;52.210;21.046;2023-04-26T04:26:32;9.40;18.10
11091;DHT22;5599;52.210;21.046;2023-04-26T04:29:03;10.50;99.90
11091;DHT22;5599;52.210;21.046;2023-04-26T04:31:37;11.80;87.80
11091;DHT22;5599;52.210;21.046;2023-04-26T04:34:09;12.80;56.80
11091;DHT22;5599;52.210;21.046;2023-04-26T04:36:41;13.70;30.20
11091;DHT22;5599;52.210;21.046;2023-04-26T04:39:10;14.80;20.90
11091;DHT22;5599;52.210;21.046;2023-04-26T04:41:44;15.90;1.00
11091;DHT22;5599;52.210;21.046;2023-04-26T04:44:18;16.80;1.00
11091;DHT22;5599;52.210;21.046;2023-04-26T04:46:47;17.50;1.00
11091;DHT22;5599;52.210;21.046;2023-04-26T04:49:16;17.80;99.90
11091;DHT22;5599;52.210;21.046;2023-04-26T04:51:47;17.80;69.70
11091;DHT22;5599;52.210;21.046;2023-04-26T04:54:17;17.90;1.00
11091;DHT22;5599;52.210;21.046;2023-04-26T04:56:47;17.50;22.00
11091;DHT22;5599;52.210;21.046;2023-04-26T04:59:18;17.70;5.30
11091;DHT22;5599;52.210;21.046;2023-04-26T05:01:48;18.20;1.00
11091;DHT22;5599;52.210;21.046;2023-04-26T05:04:18;18.90;46.10
11091;DHT22;5599;52.210;21.046;2023-04-26T05:06:48;19.20;83.70
11091;DHT22;5599;52.210;21.046;2023-04-26T05:09:17;19.50;99.90
11091;DHT22;5599;52.210;21.046;2023-04-26T05:11:47;19.50;99.90
11091;DHT22;5599;52.210;21.046;2023-04-26T05:14:18;19.60;99.90
11091;DHT22;5599;52.210;21.046;2023-04-26T05:16:47;20.00;99.90
11091;DHT22;5599;52.210;21.046;2023-04-26T05:19:17;20.70;99.90
11091;DHT22;5599;52.210;21.046;2023-04-26T05:21:46;20.70;99.90
11091;DHT22;5599;52.210;21.046;2023-04-26T05:24:16;20.70;99.90
11091;DHT22;5599;52.210;21.046;2023-04-26T05:26:46;21.60;99.90
11091;DHT22;5599;52.210;21.046;2023-04-26T05:29:29;22.00;99.90
11091;DHT22;5599;52.210;21.046;2023-04-26T05:32:08;22.40;20.40
11091;DHT22;5599;52.210;21.046;2023-04-26T05:35:13;22.50;99.90
11091;DHT22;5599;52.210;21.046;2023-04-26T05:37:43;21.20;99.90
11091;DHT22;5599;52.210;21.046;2023-04-26T05:40:13;20.70;99.90
11091;DHT22;5599;52.210;21.046;2023-04-26T05:42:44;20.80;92.90
11091;DHT22;5599;52.210;21.046;2023-04-26T05:45:15;20.40;39.60
11091;DHT22;5599;52.210;21.046;2023-04-26T05:47:44;19.50;1.00
11091;DHT22;5599;52.210;21.046;2023-04-26T05:50:15;18.90;1.00
11091;DHT22;5599;52.210;21.046;2023-04-26T05:52:44;18.90;99.90
11091;DHT22;5599;52.210;21.046;2023-04-26T05:55:13;19.10;76.60
11091;DHT22;5599;52.210;21.046;2023-04-26T05:57:43;19.50;57.90
11091;DHT22;5599;52.210;21.046;2023-04-26T06:00:15;20.30;99.90
11091;DHT22;5599;52.210;21.046;2023-04-26T06:02:47;20.70;63.50
11091;DHT22;5599;52.210;21.046;2023-04-26T06:05:17;20.50;99.90
11091;DHT22;5599;52.210;21.046;2023-04-26T06:07:47;20.50;97.00
11091;DHT22;5599;52.210;21.046;2023-04-26T06:10:17;19.80;21.70
11091;DHT22;5599;52.210;21.046;2023-04-26T06:12:46;19.70;11.40
11091;DHT22;5599;52.210;21.046;2023-04-26T06:15:18;19.80;1.00
11091;DHT22;5599;52.210;21.046;2023-04-26T06:17:51;19.20;1.00
11091;DHT22;5599;52.210;21.046;2023-04-26T06:20:25;19.00;1.00
11091;DHT22;5599;52.210;21.046;2023-04-26T06:22:55;19.50;99.90
11091;DHT22;5599;52.210;21.046;2023-04-26T06:25:24;19.90;1.00
11091;DHT22;5599;52.210;21.046;2023-04-26T06:27:54;20.50;1.00
11091;DHT22;5599;52.210;21.046;2023-04-26T06:30:24;20.60;1.00
11091;DHT22;5599;52.210;21.046;2023-04-26T06:32:54;20.90;1.00
11091;DHT22;5599;52.210;21.046;2023-04-26T06:35:26;21.30;1.00
11091;DHT22;5599;52.210;21.046;2023-04-26T06:38:02;21.40;1.00
11091;DHT22;5599;52.210;21.046;2023-04-26T06:40:31;21.50;1.00
11091;DHT22;5599;52.210;21.046;2023-04-26T06:43:00;21.70;1.00
11091;DHT22;5599;52.210;21.046;2023-04-26T06:45:41;21.50;1.00
11091;DHT22;5599;52.210;21.046;2023-04-26T06:48:11;20.70;1.00
11091;DHT22;5599;52.210;21.046;2023-04-26T06:50:41;20.40;1.00
11091;DHT22;5599;52.210;21.046;2023-04-26T06:53:10;20.20;1.00
11091;DHT22;5599;52.210;21.046;2023-04-26T06:55:39;20.10;1.00
11091;DHT22;5599;52.210;21.046;2023-04-26T06:58:09;20.00;1.00
11091;DHT22;5599;52.210;21.046;2023-04-26T07:00:38;20.10;1.00
11091;DHT22;5599;52.210;21.046;2023-04-26T07:03:09;19.90;1.00
11091;DHT22;5599;52.210;21.046;2023-04-26T07:05:39;20.20;1.00
11091;DHT22;5599;52.210;21.046;2023-04-26T07:08:08;20.40;99.90
11091;DHT22;5599;52.210;21.046;2023-04-26T07:10:38;20.70;99.90
11091;DHT22;5599;52.210;21.046;2023-04-26T07:13:08;20.30;99.90
11091;DHT22;5599;52.210;21.046;2023-04-26T07:15:37;20.10;99.90
11091;DHT22;5599;52.210;21.046;2023-04-26T07:18:07;19.90;99.90
11091;DHT22;5599;52.210;21.046;2023-04-26T07:20:38;20.00;99.90
11091;DHT22;5599;52.210;21.046;2023-04-26T07:23:07;20.00;99.90
11091;DHT22;5599;52.210;21.046;2023-04-26T07:25:36;20.20;99.90
11091;DHT22;5599;52.210;21.046;2023-04-26T07:28:06;20.10;99.90
11091;DHT22;5599;52.210;21.046;2023-04-26T07:30:36;20.00;99.90
11091;DHT22;5599;52.210;21.046;2023-04-26T07:33:05;20.10;1.00
11091;DHT22;5599;52.210;21.046;2023-04-26T07:35:42;19.90;99.90
11091;DHT22;5599;52.210;21.046;2023-04-26T07:38:11;19.50;99.90
11091;DHT22;5599;52.210;21.046;2023-04-26T07:40:46;19.20;99.90
11091;DHT22;5599;52.210;21.046;2023-04-26T07:43:15;19.30;99.90
11091;DHT22;5599;52.210;21.046;2023-04-26T07:45:45;19.70;99.90
11091;DHT22;5599;52.210;21.046;2023-04-26T07:48:15;19.90;99.90
11091;DHT22;5599;52.210;21.046;2023-04-26T07:50:46;19.60;99.90
11091;DHT22;5599;52.210;21.046;2023-04-26T07:53:16;19.10;99.90
11091;DHT22;5599;52.210;21.046;2023-04-26T07:55:45;18.80;99.90
11091;DHT22;5599;52.210;21.046;2023-04-26T07:58:14;18.40;99.90
11091;DHT22;5599;52.210;21.046;2023-04-26T08:00:44;18.00;80.60
11091;DHT22;5599;52.210;21.046;2023-04-26T08:03:14;17.30;86.30
11091;DHT22;5599;52.210;21.046;2023-04-26T08:05:46;17.00;73.20
11091;DHT22;5599;52.210;21.046;2023-04-26T08:08:16;16.70;1.00
11091;DHT22;5599;52.210;21.046;2023-04-26T08:10:45;16.20;1.00
11091;DHT22;5599;52.210;21.046;2023-04-26T08:13:15;16.20;1.00
11091;DHT22;5599;52.210;21.046;2023-04-26T08:15:45;16.40;1.00
11091;DHT22;5599;52.210;21.046;2023-04-26T08:18:15;16.10;1.00
11091;DHT22;5599;52.210;21.046;2023-04-26T08:20:46;16.00;1.00
11091;DHT22;5599;52.210;21.046;2023-04-26T08:23:15;15.90;99.90
11091;DHT22;5599;52.210;21.046;2023-04-26T08:25:46;15.60;87.00
11091;DHT22;5599;52.210;21.046;2023-04-26T08:28:16;15.30;83.90
11091;DHT22;5599;52.210;21.046;2023-04-26T08:30:46;14.90;1.00
11091;DHT22;5599;52.210;21.046;2023-04-26T08:33:17;14.50;1.00
11091;DHT22;5599;52.210;21.046;2023-04-26T08:35:48;14.30;33.70
11091;DHT22;5599;52.210;21.046;2023-04-26T08:38:17;14.60;99.90
11091;DHT22;5599;52.210;21.046;2023-04-26T08:40:50;14.80;99.90
11091;DHT22;5599;52.210;21.046;2023-04-26T08:43:20;14.80;99.90
11091;DHT22;5599;52.210;21.046;2023-04-26T08:45:50;14.50;99.90
11091;DHT22;5599;52.210;21.046;2023-04-26T08:48:19;14.30;99.90
11091;DHT22;5599;52.210;21.046;2023-04-26T08:50:51;14.20;99.90
11091;DHT22;5599;52.210;21.046;2023-04-26T08:53:22;14.00;20.00
11091;DHT22;5599;52.210;21.046;2023-04-26T08:55:53;13.70;62.50
11091;DHT22;5599;52.210;21.046;2023-04-26T08:58:23;13.70;99.60
11091;DHT22;5599;52.210;21.046;2023-04-26T09:00:52;13.50;1.00
11091;DHT22;5599;52.210;21.046;2023-04-26T09:03:22;13.30;99.90
11091;DHT22;5599;52.210;21.046;2023-04-26T09:05:55;13.30;21.10
11091;DHT22;5599;52.210;21.046;2023-04-26T09:08:24;13.20;99.90
11091;DHT22;5599;52.210;21.046;2023-04-26T09:10:54;13.00;1.00
11091;DHT22;5599;52.210;21.046;2023-04-26T09:13:27;12.80;1.00
11091;DHT22;5599;52.210;21.046;2023-04-26T09:15:57;12.80;1.00
11091;DHT22;5599;52.210;21.046;2023-04-26T09:18:29;12.40;1.00
11091;DHT22;5599;52.210;21.046;2023-04-26T09:21:04;12.10;1.00
11091;DHT22;5599;52.210;21.046;2023-04-26T09:23:33;11.80;1.00
11091;DHT22;5599;52.210;21.046;2023-04-26T09:26:17;11.80;1.00
11091;DHT22;5599;52.210;21.046;2023-04-26T09:28:47;11.90;1.00
11091;DHT22;5599;52.210;21.046;2023-04-26T09:31:35;11.90;1.00
11091;DHT22;5599;52.210;21.046;2023-04-26T09:34:06;11.80;1.00
11091;DHT22;5599;52.210;21.046;2023-04-26T09:36:49;11.60;1.00
11091;DHT22;5599;52.210;21.046;2023-04-26T09:39:32;11.50;1.00
11091;DHT22;5599;52.210;21.046;2023-04-26T09:42:02;11.30;1.00
11091;DHT22;5599;52.210;21.046;2023-04-26T09:44:32;11.20;1.00
11091;DHT22;5599;52.210;21.046;2023-04-26T09:47:03;11.20;1.00
11091;DHT22;5599;52.210;21.046;2023-04-26T09:49:43;11.20;1.00
11091;DHT22;5599;52.210;21.046;2023-04-26T09:52:15;11.10;1.00
11091;DHT22;5599;52.210;21.046;2023-04-26T09:54:46;11.20;1.00
11091;DHT22;5599;52.210;21.046;2023-04-26T09:57:17;11.30;1.00
11091;DHT22;5599;52.210;21.046;2023-04-26T09:59:49;11.40;1.00
11091;DHT22;5599;52.210;21.046;2023-04-26T10:02:24;11.50;1.00
11091;DHT22;5599;52.210;21.046;2023-04-26T10:04:55;11.40;1.00
11091;DHT22;5599;52.210;21.046;2023-04-26T10:07:29;11.40;5.10
11091;DHT22;5599;52.210;21.046;2023-04-26T10:09:58;11.30;1.00
11091;DHT22;5599;52.210;21.046;2023-04-26T10:12:28;11.30;1.00
11091;DHT22;5599;52.210;21.046;2023-04-26T10:14:57;11.30;29.20
11091;DHT22;5599;52.210;21.046;2023-04-26T10:17:26;11.40;65.80
11091;DHT22;5599;52.210;21.046;2023-04-26T10:19:57;11.50;51.20
11091;DHT22;5599;52.210;21.046;2023-04-26T10:22:33;11.80;1.00
11091;DHT22;5599;52.210;21.046;2023-04-26T10:25:04;12.10;11.10
11091;DHT22;5599;52.210;21.046;2023-04-26T10:27:51;12.10;1.00
11091;DHT22;5599;52.210;21.046;2023-04-26T10:30:21;12.30;1.00
11091;DHT22;5599;52.210;21.046;2023-04-26T10:33:15;12.30;1.00
11091;DHT22;5599;52.210;21.046;2023-04-26T10:36:03;12.20;1.00
11091;DHT22;5599;52.210;21.046;2023-04-26T10:38:36;12.10;1.00
11091;DHT22;5599;52.210;21.046;2023-04-26T10:41:32;12.10;1.00
11091;DHT22;5599;52.210;21.046;2023-04-26T10:47:05;12.40;1.00
11091;DHT22;5599;52.210;21.046;2023-04-26T10:49:45;12.40;1.00
11091;DHT22;5599;52.210;21.046;2023-04-26T10:52:16;12.20;1.00
11091;DHT22;5599;52.210;21.046;2023-04-26T10:54:53;12.20;1.00
11091;DHT22;5599;52.210;21.046;2023-04-26T11:00:28;12.20;1.00
11091;DHT22;5599;52.210;21.046;2023-04-26T11:03:04;12.20;1.00
11091;DHT22;5599;52.210;21.046;2023-04-26T11:05:37;12.40;6.20
11091;DHT22;5599;52.210;21.046;2023-04-26T11:08:15;12.40;1.00
11091;DHT22;5599;52.210;21.046;2023-04-26T11:10:51;12.20;8.40
11091;DHT22;5599;52.210;21.046;2023-04-26T11:13:20;12.40;1.00
11091;DHT22;5599;52.210;21.046;2023-04-26T11:15:53;12.50;1.00
11091;DHT22;5599;52.210;21.046;2023-04-26T11:18:29;12.90;3.50
11091;DHT22;5599;52.210;21.046;2023-04-26T11:20:59;13.10;1.00
11091;DHT22;5599;52.210;21.046;2023-04-26T11:23:29;13.00;22.20
11091;DHT22;5599;52.210;21.046;2023-04-26T11:26:02;12.80;27.10
11091;DHT22;5599;52.210;21.046;2023-04-26T11:28:33;12.70;46.20
11091;DHT22;5599;52.210;21.046;2023-04-26T11:31:03;12.20;63.20
11091;DHT22;5599;52.210;21.046;2023-04-26T11:33:33;11.90;59.40
11091;DHT22;5599;52.210;21.046;2023-04-26T11:36:03;11.50;30.80
11091;DHT22;5599;52.210;21.046;2023-04-26T11:38:32;11.20;91.10
11091;DHT22;5599;52.210;21.046;2023-04-26T11:41:03;11.10;21.50
11091;DHT22;5599;52.210;21.046;2023-04-26T11:43:37;11.10;1.00
11091;DHT22;5599;52.210;21.046;2023-04-26T11:46:07;11.30;35.80
11091;DHT22;5599;52.210;21.046;2023-04-26T11:48:37;11.50;1.30
11091;DHT22;5599;52.210;21.046;2023-04-26T11:51:07;11.80;35.10
11091;DHT22;5599;52.210;21.046;2023-04-26T11:53:40;11.90;1.00
11091;DHT22;5599;52.210;21.046;2023-04-26T11:56:14;12.20;52.50
11091;DHT22;5599;52.210;21.046;2023-04-26T11:58:46;12.50;1.00
11091;DHT22;5599;52.210;21.046;2023-04-26T12:01:20;12.70;37.60
11091;DHT22;5599;52.210;21.046;2023-04-26T12:03:51;12.50;51.70
11091;DHT22;5599;52.210;21.046;2023-04-26T12:06:27;12.40;1.00
11091;DHT22;5599;52.210;21.046;2023-04-26T12:08:59;12.30;6.30
11091;DHT22;5599;52.210;21.046;2023-04-26T12:11:30;12.20;12.10
11091;DHT22;5599;52.210;21.046;2023-04-26T12:14:00;11.90;1.00
11091;DHT22;5599;52.210;21.046;2023-04-26T12:16:30;11.80;31.70
11091;DHT22;5599;52.210;21.046;2023-04-26T12:19:04;11.70;1.00
11091;DHT22;5599;52.210;21.046;2023-04-26T12:21:39;11.50;1.00
11091;DHT22;5599;52.210;21.046;2023-04-26T12:24:24;11.50;6.10
11091;DHT22;5599;52.210;21.046;2023-04-26T12:26:55;11.60;1.00
11091;DHT22;5599;52.210;21.046;2023-04-26T12:29:28;11.70;10.70
11091;DHT22;5599;52.210;21.046;2023-04-26T12:31:59;12.00;1.00
11091;DHT22;5599;52.210;21.046;2023-04-26T12:34:29;12.00;39.10
11091;DHT22;5599;52.210;21.046;2023-04-26T12:36:58;12.20;53.00
11091;DHT22;5599;52.210;21.046;2023-04-26T12:39:28;12.30;37.00
11091;DHT22;5599;52.210;21.046;2023-04-26T12:41:59;12.30;49.10
11091;DHT22;5599;52.210;21.046;2023-04-26T12:44:28;12.30;52.20
11091;DHT22;5599;52.210;21.046;2023-04-26T12:47:04;12.30;99.90
11091;DHT22;5599;52.210;21.046;2023-04-26T12:49:53;12.10;19.10
11091;DHT22;5599;52.210;21.046;2023-04-26T12:52:40;12.00;51.00
11091;DHT22;5599;52.210;21.046;2023-04-26T12:55:33;12.00;30.50
11091;DHT22;5599;52.210;21.046;2023-04-26T12:58:04;12.00;21.40
11091;DHT22;5599;52.210;21.046;2023-04-26T13:00:33;12.00;99.90
11091;DHT22;5599;52.210;21.046;2023-04-26T13:03:03;12.00;28.60
11091;DHT22;5599;52.210;21.046;2023-04-26T13:05:33;12.10;44.30
11091;DHT22;5599;52.210;21.046;2023-04-26T13:08:03;12.00;23.20
11091;DHT22;5599;52.210;21.046;2023-04-26T13:10:32;12.00;32.90
11091;DHT22;5599;52.210;21.046;2023-04-26T13:13:03;11.90;29.60
11091;DHT22;5599;52.210;21.046;2023-04-26T13:15:32;11.90;1.00
11091;DHT22;5599;52.210;21.046;2023-04-26T13:18:02;12.00;18.70
11091;DHT22;5599;52.210;21.046;2023-04-26T13:20:33;12.00;36.40
11091;DHT22;5599;52.210;21.046;2023-04-26T13:23:03;11.80;12.50
11091;DHT22;5599;52.210;21.046;2023-04-26T13:25:32;11.70;22.90
11091;DHT22;5599;52.210;21.046;2023-04-26T13:28:01;11.60;59.90
11091;DHT22;5599;52.210;21.046;2023-04-26T13:30:32;11.60;64.00
11091;DHT22;5599;52.210;21.046;2023-04-26T13:33:02;11.50;70.80
11091;DHT22;5599;52.210;21.046;2023-04-26T13:35:31;11.40;1.00
11091;DHT22;5599;52.210;21.046;2023-04-26T13:38:01;11.50;48.00
11091;DHT22;5599;52.210;21.046;2023-04-26T13:40:30;11.60;45.90
11091;DHT22;5599;52.210;21.046;2023-04-26T13:43:00;11.80;92.10
11091;DHT22;5599;52.210;21.046;2023-04-26T13:45:29;11.80;93.10
11091;DHT22;5599;52.210;21.046;2023-04-26T13:48:05;11.80;98.70
11091;DHT22;5599;52.210;21.046;2023-04-26T13:50:35;11.90;61.70
11091;DHT22;5599;52.210;21.046;2023-04-26T13:53:04;11.90;99.90
11091;DHT22;5599;52.210;21.046;2023-04-26T13:55:34;11.80;98.00
11091;DHT22;5599;52.210;21.046;2023-04-26T13:58:03;11.70;28.40
11091;DHT22;5599;52.210;21.046;2023-04-26T14:00:33;11.80;82.50
11091;DHT22;5599;52.210;21.046;2023-04-26T14:03:04;11.70;76.10
11091;DHT22;5599;52.210;21.046;2023-04-26T14:05:34;11.70;56.40
11091;DHT22;5599;52.210;21.046;2023-04-26T14:08:03;11.70;35.40
11091;DHT22;5599;52.210;21.046;2023-04-26T14:10:33;11.90;19.80
11091;DHT22;5599;52.210;21.046;2023-04-26T14:13:02;11.90;13.50
11091;DHT22;5599;52.210;21.046;2023-04-26T14:15:32;11.90;13.40
11091;DHT22;5599;52.210;21.046;2023-04-26T14:18:01;11.90;1.00
11091;DHT22;5599;52.210;21.046;2023-04-26T14:20:32;11.80;1.00
11091;DHT22;5599;52.210;21.046;2023-04-26T14:23:01;11.70;1.00
11091;DHT22;5599;52.210;21.046;2023-04-26T14:25:30;11.80;1.00
11091;DHT22;5599;52.210;21.046;2023-04-26T14:28:01;11.90;1.00
11091;DHT22;5599;52.210;21.046;2023-04-26T14:30:30;11.80;1.00
11091;DHT22;5599;52.210;21.046;2023-04-26T14:33:00;11.70;1.00
11091;DHT22;5599;52.210;21.046;2023-04-26T14:35:29;11.70;1.00
11091;DHT22;5599;52.210;21.046;2023-04-26T14:38:00;11.70;1.00
11091;DHT22;5599;52.210;21.046;2023-04-26T14:40:29;11.60;1.00
11091;DHT22;5599;52.210;21.046;2023-04-26T14:42:59;11.60;1.00
11091;DHT22;5599;52.210;21.046;2023-04-26T14:45:29;11.60;1.00
11091;DHT22;5599;52.210;21.046;2023-04-26T14:48:11;11.50;1.00
11091;DHT22;5599;52.210;21.046;2023-04-26T14:50:41;11.40;1.00
11091;DHT22;5599;52.210;21.046;2023-04-26T14:53:11;11.30;1.00
11091;DHT22;5599;52.210;21.046;2023-04-26T14:55:40;11.30;1.00
11091;DHT22;5599;52.210;21.046;2023-04-26T14:58:10;11.30;1.00
11091;DHT22;5599;52.210;21.046;2023-04-26T15:00:39;11.30;1.00
11091;DHT22;5599;52.210;21.046;2023-04-26T15:03:09;11.30;1.00
11091;DHT22;5599;52.210;21.046;2023-04-26T15:05:39;11.30;1.00
11091;DHT22;5599;52.210;21.046;2023-04-26T15:08:09;11.40;1.00
11091;DHT22;5599;52.210;21.046;2023-04-26T15:10:39;11.30;1.00
11091;DHT22;5599;52.210;21.046;2023-04-26T15:13:09;11.30;1.00
11091;DHT22;5599;52.210;21.046;2023-04-26T15:15:38;11.30;1.00
11091;DHT22;5599;52.210;21.046;2023-04-26T15:18:08;11.20;1.00
11091;DHT22;5599;52.210;21.046;2023-04-26T15:20:38;11.10;1.00
11091;DHT22;5599;52.210;21.046;2023-04-26T15:23:08;11.10;1.00
11091;DHT22;5599;52.210;21.046;2023-04-26T15:25:39;11.10;1.00
11091;DHT22;5599;52.210;21.046;2023-04-26T15:28:09;11.10;1.00
11091;DHT22;5599;52.210;21.046;2023-04-26T15:30:38;11.10;1.00
11091;DHT22;5599;52.210;21.046;2023-04-26T15:33:08;11.20;1.00
11091;DHT22;5599;52.210;21.046;2023-04-26T15:35:39;11.20;1.00
11091;DHT22;5599;52.210;21.046;2023-04-26T15:38:09;11.00;1.00
11091;DHT22;5599;52.210;21.046;2023-04-26T15:40:40;11.10;1.00
11091;DHT22;5599;52.210;21.046;2023-04-26T15:43:10;11.00;1.00
11091;DHT22;5599;52.210;21.046;2023-04-26T15:45:39;10.90;1.00
11091;DHT22;5599;52.210;21.046;2023-04-26T15:48:10;10.80;1.00
11091;DHT22;5599;52.210;21.046;2023-04-26T15:50:40;10.80;1.00
11091;DHT22;5599;52.210;21.046;2023-04-26T15:53:09;10.70;1.00
11091;DHT22;5599;52.210;21.046;2023-04-26T15:55:40;10.70;1.00
11091;DHT22;5599;52.210;21.046;2023-04-26T15:58:10;10.60;1.00
11091;DHT22;5599;52.210;21.046;2023-04-26T16:00:39;10.60;1.00
11091;DHT22;5599;52.210;21.046;2023-04-26T16:03:09;10.60;1.00
11091;DHT22;5599;52.210;21.046;2023-04-26T16:05:38;10.50;1.00
11091;DHT22;5599;52.210;21.046;2023-04-26T16:08:08;10.50;1.00
11091;DHT22;5599;52.210;21.046;2023-04-26T16:10:37;10.40;18.50
11091;DHT22;5599;52.210;21.046;2023-04-26T16:13:08;10.40;1.00